Terminal Aerodrome Forecast
Issued by NWS Wichita, KS

Home | Current Version | Previous Version | Graphics & Text | Print | Product List | Glossary On
Versions: 1 2 3 4 5 6 7 8 9 10 11 12 13 14 15 16 17
000
FTUS43 KICT 141140
TAFICT
TAF
KICT 141140Z 1412/1512 17005KT P6SM -SHRA VCTS SCT070CB OVC120
     FM141500 18015G25KT P6SM -SHRA VCTS BKN080CB
     FM141800 19015G25KT P6SM VCTS BKN070CB
     FM142300 24015KT P6SM VCTS BKN070CB
     FM150100 33028G38KT P6SM BKN100
     FM150800 35020G30KT P6SM SCT250=

USA.gov is the U.S. government's official web portal to all federal, state and local government web resources and services.